Terminal Aerodrome Forecast
Issued by NWS Jackson, KY

Home | Current Version | Previous Version | Text Only | Print | Product List | Glossary On
Versions: 1 2 3 4 5 6 7 8 9 10 11 12 13 14 15
000
FTUS43 KJKL 221100
TAFLOZ
TAF
KLOZ 221133Z 2212/2312 VRB03KT P6SM SCT025
     FM221500 VRB03KT P6SM SCT015 SCT035
     FM221900 VRB04KT P6SM FEW040
     FM231000 00000KT 4SM BR SKC=

USA.gov is the U.S. government's official web portal to all federal, state and local government web resources and services.